Time;durP1;ratioP1;P1;durP2;ratioP2;P2;SDS_P1;SDS_P2;PMS_P1;PMS_P2;Temp;Humidity;BMP_temperature;BMP_pressure;BME280_temperature;BME280_humidity;BME280_pressure;Samples;Min_cycle;Max_cycle;Signal;HPM_P1;HPM_P2
2022/08/16 00:02:24;;;;;;;17.45;9.00;;;;;;;;;;4967263;28;20169;-76
2022/08/16 00:04:50;;;;;;;15.15;8.65;;;;;;;;;;4966937;28;20228;-76
2022/08/16 00:07:16;;;;;;;15.60;9.25;;;;;;;;;;4959531;28;20117;-76
2022/08/16 00:09:41;;;;;;;12.85;9.02;;;;;;;;;;4964899;28;20501;-76
2022/08/16 00:12:07;;;;;;;17.48;10.10;;;;;;;;;;4971861;28;20555;-75
2022/08/16 00:14:33;;;;;;;14.57;9.25;;;;;;;;;;4957717;28;20057;-75
2022/08/16 00:16:59;;;;;;;13.10;9.35;;;;;;;;;;4955174;28;20488;-75
2022/08/16 00:19:29;;;;;;;15.32;9.07;;;;;;;;;;4964567;28;20173;-75
2022/08/16 00:21:54;;;;;;;19.08;10.30;;;;;;;;;;4958331;28;20053;-75
2022/08/16 00:24:21;;;;;;;16.60;9.77;;;;;;;;;;4960064;28;20031;-75
2022/08/16 00:26:47;;;;;;;14.75;10.95;;;;;;;;;;4959692;28;20054;-75
2022/08/16 00:29:16;;;;;;;14.50;9.75;;;;;;;;;;4959079;28;20480;-75
2022/08/16 00:31:45;;;;;;;13.85;10.13;;;;;;;;;;4959980;28;20027;-74
2022/08/16 00:34:11;;;;;;;22.25;10.60;;;;;;;;;;4960189;28;20039;-75
2022/08/16 00:36:36;;;;;;;22.38;10.52;;;;;;;;;;4976903;28;20359;-75
2022/08/16 00:39:02;;;;;;;13.90;9.73;;;;;;;;;;4976324;28;20034;-75
2022/08/16 00:41:29;;;;;;;17.92;10.20;;;;;;;;;;4962681;28;20027;-74
2022/08/16 00:43:55;;;;;;;17.05;10.80;;;;;;;;;;4970225;28;20023;-74
2022/08/16 00:46:31;;;;;;;17.40;10.38;;;;;;;;;;4968818;28;20042;-75
2022/08/16 00:48:57;;;;;;;18.70;10.05;;;;;;;;;;4977682;28;20082;-74
2022/08/16 00:51:25;;;;;;;17.08;9.88;;;;;;;;;;4965464;28;20484;-74
2022/08/16 00:53:52;;;;;;;21.98;10.23;;;;;;;;;;4965710;28;20113;-73
2022/08/16 00:56:25;;;;;;;15.07;10.45;;;;;;;;;;4977686;28;20538;-73
2022/08/16 00:58:51;;;;;;;17.38;10.63;;;;;;;;;;4962937;28;20023;-74
2022/08/16 01:01:17;;;;;;;14.68;10.25;;;;;;;;;;4956523;28;20031;-74
2022/08/16 01:03:47;;;;;;;15.48;10.07;;;;;;;;;;4975308;28;20034;-75
2022/08/16 01:06:14;;;;;;;16.58;10.07;;;;;;;;;;4961765;28;20065;-76
2022/08/16 01:08:43;;;;;;;19.65;10.48;;;;;;;;;;4962908;28;20041;-74
2022/08/16 01:11:09;;;;;;;14.68;10.50;;;;;;;;;;4963483;28;20483;-74
2022/08/16 01:13:37;;;;;;;15.80;10.52;;;;;;;;;;4968041;28;20062;-75
2022/08/16 01:16:02;;;;;;;14.48;9.63;;;;;;;;;;4964996;28;20046;-74
2022/08/16 01:18:33;;;;;;;13.40;10.00;;;;;;;;;;4968016;28;20047;-74
2022/08/16 01:21:11;;;;;;;17.05;10.07;;;;;;;;;;4962929;28;20391;-74
2022/08/16 01:24:05;;;;;;;15.18;9.30;;;;;;;;;;4977828;28;20765;-74
2022/08/16 01:26:32;;;;;;;16.50;9.93;;;;;;;;;;4975422;28;20097;-74
2022/08/16 01:29:02;;;;;;;14.30;9.70;;;;;;;;;;4962417;28;20499;-74
2022/08/16 01:31:28;;;;;;;14.95;9.80;;;;;;;;;;4979373;28;20042;-75
2022/08/16 01:33:55;;;;;;;15.32;10.23;;;;;;;;;;4967609;28;20039;-74
2022/08/16 01:36:21;;;;;;;15.80;9.75;;;;;;;;;;4974306;28;20030;-74
2022/08/16 01:38:48;;;;;;;13.65;10.07;;;;;;;;;;4978916;28;20354;-74
2022/08/16 01:41:18;;;;;;;16.58;10.05;;;;;;;;;;4959624;28;20023;-74
2022/08/16 01:43:45;;;;;;;17.70;9.90;;;;;;;;;;4975965;28;20461;-74
2022/08/16 01:46:33;;;;;;;11.85;8.88;;;;;;;;;;4962554;28;20039;-75
2022/08/16 01:49:07;;;;;;;12.95;8.90;;;;;;;;;;4967180;28;20550;-75
2022/08/16 01:51:33;;;;;;;15.23;9.20;;;;;;;;;;4962638;28;20031;-73
2022/08/16 01:53:58;;;;;;;13.02;8.70;;;;;;;;;;4968032;28;20022;-75
2022/08/16 01:56:25;;;;;;;14.75;9.02;;;;;;;;;;4963422;28;20379;-75
2022/08/16 01:58:53;;;;;;;12.63;9.18;;;;;;;;;;4957388;28;20019;-75
2022/08/16 02:01:20;;;;;;;14.00;8.57;;;;;;;;;;4951786;28;20035;-75
2022/08/16 02:03:46;;;;;;;12.68;9.25;;;;;;;;;;4964249;28;20055;-75
2022/08/16 02:06:11;;;;;;;15.48;8.30;;;;;;;;;;4969557;28;20058;-75
2022/08/16 02:08:37;;;;;;;12.75;9.00;;;;;;;;;;4959052;28;20448;-74
2022/08/16 02:11:06;;;;;;;10.80;8.63;;;;;;;;;;4973271;28;20050;-74
2022/08/16 02:13:32;;;;;;;12.80;8.80;;;;;;;;;;4967962;28;20511;-75
2022/08/16 02:15:57;;;;;;;15.20;9.20;;;;;;;;;;4963494;28;20148;-73
2022/08/16 02:18:23;;;;;;;15.25;8.95;;;;;;;;;;4973760;28;20047;-74
2022/08/16 02:20:51;;;;;;;13.43;7.78;;;;;;;;;;4967365;28;20550;-74
2022/08/16 02:23:17;;;;;;;11.90;8.15;;;;;;;;;;4951498;28;20034;-74
2022/08/16 02:25:43;;;;;;;10.95;7.68;;;;;;;;;;4962233;28;20468;-73
2022/08/16 02:28:09;;;;;;;11.38;8.82;;;;;;;;;;4977248;28;20538;-74
2022/08/16 02:30:35;;;;;;;12.82;8.35;;;;;;;;;;4962125;28;20039;-74
2022/08/16 02:33:03;;;;;;;10.98;7.97;;;;;;;;;;4982953;28;20604;-74
2022/08/16 02:35:30;;;;;;;11.80;8.23;;;;;;;;;;4966816;28;20031;-74
2022/08/16 02:37:55;;;;;;;9.32;7.32;;;;;;;;;;4972451;28;20489;-74
2022/08/16 02:40:23;;;;;;;10.68;7.35;;;;;;;;;;4966875;28;20069;-74
2022/08/16 02:42:49;;;;;;;10.30;7.32;;;;;;;;;;4961973;28;20033;-74
2022/08/16 02:45:17;;;;;;;11.57;7.88;;;;;;;;;;4959729;28;20042;-74
2022/08/16 02:47:43;;;;;;;9.50;6.97;;;;;;;;;;4961030;28;20027;-74
2022/08/16 02:50:09;;;;;;;12.45;7.70;;;;;;;;;;4966159;28;20046;-74
2022/08/16 02:52:35;;;;;;;13.07;7.53;;;;;;;;;;4972410;28;20110;-74
2022/08/16 02:55:01;;;;;;;9.02;7.07;;;;;;;;;;4976110;28;20455;-74
2022/08/16 02:57:26;;;;;;;9.57;7.53;;;;;;;;;;4961512;28;20026;-74
2022/08/16 02:59:52;;;;;;;11.00;7.78;;;;;;;;;;4967480;28;20042;-74
2022/08/16 03:02:18;;;;;;;9.32;7.40;;;;;;;;;;4977288;28;20029;-74
2022/08/16 03:04:44;;;;;;;10.63;7.32;;;;;;;;;;4959631;28;20041;-74
2022/08/16 03:07:10;;;;;;;10.80;7.75;;;;;;;;;;4958394;28;20046;-74
2022/08/16 03:09:36;;;;;;;12.98;9.23;;;;;;;;;;4961586;28;20034;-74
2022/08/16 03:12:04;;;;;;;10.18;7.50;;;;;;;;;;4969937;28;20081;-74
2022/08/16 03:14:30;;;;;;;13.15;7.15;;;;;;;;;;4957720;28;20035;-74
2022/08/16 03:16:57;;;;;;;11.55;7.10;;;;;;;;;;4966934;28;20039;-74
2022/08/16 03:19:24;;;;;;;12.45;7.60;;;;;;;;;;4979045;28;20464;-74
2022/08/16 03:21:50;;;;;;;13.75;7.35;;;;;;;;;;4957080;28;20499;-74
2022/08/16 03:24:23;;;;;;;14.57;7.18;;;;;;;;;;5067234;28;20905;-79
2022/08/16 03:26:49;;;;;;;10.18;6.53;;;;;;;;;;5068007;28;20075;-78
2022/08/16 03:29:14;;;;;;;10.73;6.05;;;;;;;;;;5063727;28;20060;-78
2022/08/16 03:31:40;;;;;;;10.80;7.15;;;;;;;;;;5067761;28;20444;-80
2022/08/16 03:34:05;;;;;;;9.68;6.80;;;;;;;;;;5067385;28;20082;-79
2022/08/16 03:36:31;;;;;;;9.43;6.45;;;;;;;;;;5067287;28;20437;-79
2022/08/16 03:38:56;;;;;;;10.85;6.68;;;;;;;;;;5067729;28;20206;-78
2022/08/16 03:41:22;;;;;;;8.00;6.18;;;;;;;;;;5067413;28;20033;-80
2022/08/16 03:43:48;;;;;;;9.18;5.97;;;;;;;;;;5066606;28;20419;-79
2022/08/16 03:46:14;;;;;;;8.88;6.25;;;;;;;;;;5067400;28;20116;-79
2022/08/16 03:48:40;;;;;;;7.78;5.88;;;;;;;;;;5066778;28;20028;-78
2022/08/16 03:51:09;;;;;;;8.25;5.70;;;;;;;;;;5066123;28;20503;-78
2022/08/16 03:53:35;;;;;;;10.25;5.75;;;;;;;;;;5066022;28;20147;-78
2022/08/16 03:56:00;;;;;;;9.18;5.72;;;;;;;;;;5065769;28;20468;-79
2022/08/16 03:58:26;;;;;;;14.75;6.55;;;;;;;;;;5067417;28;20071;-79
2022/08/16 04:00:54;;;;;;;12.25;6.82;;;;;;;;;;5065888;28;20036;-77
2022/08/16 04:03:19;;;;;;;10.45;6.72;;;;;;;;;;5066953;28;20032;-80
2022/08/16 04:05:47;;;;;;;7.78;5.72;;;;;;;;;;5067338;28;20082;-79
2022/08/16 04:08:13;;;;;;;9.60;6.15;;;;;;;;;;5067497;28;20031;-80
2022/08/16 04:10:39;;;;;;;11.48;6.05;;;;;;;;;;5066673;28;20025;-78
2022/08/16 04:13:05;;;;;;;11.15;6.03;;;;;;;;;;5067074;28;20063;-78
2022/08/16 04:15:31;;;;;;;11.10;6.45;;;;;;;;;;5066768;28;20033;-78
2022/08/16 04:18:00;;;;;;;9.90;6.70;;;;;;;;;;5066804;28;20035;-79
2022/08/16 04:20:25;;;;;;;13.15;6.30;;;;;;;;;;5066334;28;20068;-79
2022/08/16 04:22:51;;;;;;;9.07;5.78;;;;;;;;;;5065861;28;20511;-79
2022/08/16 04:25:17;;;;;;;12.75;5.72;;;;;;;;;;5065313;28;20104;-78
2022/08/16 04:27:42;;;;;;;7.88;5.85;;;;;;;;;;5066743;28;20408;-77
2022/08/16 04:30:14;;;;;;;10.77;5.78;;;;;;;;;;5064977;28;20097;-78
2022/08/16 04:32:40;;;;;;;7.05;5.65;;;;;;;;;;5066248;28;20043;-78
2022/08/16 04:35:08;;;;;;;9.20;5.13;;;;;;;;;;5050318;28;20029;-79
2022/08/16 04:37:34;;;;;;;8.27;5.38;;;;;;;;;;5046794;28;20500;-79
2022/08/16 04:39:59;;;;;;;9.52;5.32;;;;;;;;;;5052640;28;20024;-80
2022/08/16 04:42:26;;;;;;;8.98;6.90;;;;;;;;;;5048101;28;20040;-79
2022/08/16 04:44:54;;;;;;;8.88;5.65;;;;;;;;;;5050536;28;20028;-76
2022/08/16 04:47:20;;;;;;;10.13;6.22;;;;;;;;;;5048823;28;20029;-78
2022/08/16 04:49:45;;;;;;;13.18;5.95;;;;;;;;;;5050614;28;20039;-80
2022/08/16 04:52:11;;;;;;;7.88;5.93;;;;;;;;;;5052615;28;20118;-79
2022/08/16 04:54:37;;;;;;;11.07;5.97;;;;;;;;;;5051178;28;20075;-79
2022/08/16 04:57:02;;;;;;;7.68;5.15;;;;;;;;;;5052829;28;20537;-78
2022/08/16 04:59:28;;;;;;;5.57;4.63;;;;;;;;;;5052970;28;20112;-79
2022/08/16 05:01:55;;;;;;;11.75;5.28;;;;;;;;;;5052847;28;20059;-78
2022/08/16 05:04:22;;;;;;;6.15;4.57;;;;;;;;;;5052174;28;20056;-77
2022/08/16 05:06:48;;;;;;;11.02;4.95;;;;;;;;;;5052104;28;20057;-79
2022/08/16 05:09:13;;;;;;;10.50;4.40;;;;;;;;;;5052449;28;20067;-79
2022/08/16 05:11:39;;;;;;;6.00;4.65;;;;;;;;;;5053435;28;20033;-81
2022/08/16 05:14:05;;;;;;;8.70;4.53;;;;;;;;;;5042086;28;20378;-75
2022/08/16 05:16:31;;;;;;;6.45;4.13;;;;;;;;;;5039784;28;20029;-75
2022/08/16 05:18:58;;;;;;;16.08;8.43;;;;;;;;;;5043637;28;20031;-76
2022/08/16 05:21:25;;;;;;;9.65;4.57;;;;;;;;;;5042929;28;20033;-75
2022/08/16 05:23:51;;;;;;;4.82;3.95;;;;;;;;;;5040393;28;20456;-76
2022/08/16 05:26:17;;;;;;;11.50;5.10;;;;;;;;;;5041777;28;20029;-76
2022/08/16 05:28:43;;;;;;;5.43;4.20;;;;;;;;;;5045798;28;20021;-75
2022/08/16 05:31:08;;;;;;;9.38;4.43;;;;;;;;;;5040605;28;20090;-76
2022/08/16 05:33:34;;;;;;;7.68;4.43;;;;;;;;;;5045894;28;20017;-76
2022/08/16 05:36:01;;;;;;;7.90;5.22;;;;;;;;;;5045627;28;20021;-76
2022/08/16 05:38:28;;;;;;;9.50;4.68;;;;;;;;;;5041673;28;20028;-76
2022/08/16 05:40:55;;;;;;;5.88;4.32;;;;;;;;;;5036979;28;20033;-73
2022/08/16 05:43:20;;;;;;;9.55;4.47;;;;;;;;;;5042268;28;20032;-76
2022/08/16 05:45:46;;;;;;;6.38;3.83;;;;;;;;;;5037509;28;20408;-75
2022/08/16 05:48:11;;;;;;;5.57;4.28;;;;;;;;;;5047557;28;20024;-74
2022/08/16 05:50:38;;;;;;;6.40;4.20;;;;;;;;;;5044729;28;20025;-75
2022/08/16 05:53:04;;;;;;;8.25;3.70;;;;;;;;;;5042731;28;20056;-77
2022/08/16 05:55:29;;;;;;;5.82;4.47;;;;;;;;;;5044644;28;20564;-76
2022/08/16 05:57:55;;;;;;;12.80;4.45;;;;;;;;;;5040701;28;20127;-79
2022/08/16 06:00:20;;;;;;;7.78;4.03;;;;;;;;;;5039006;28;20114;-78
2022/08/16 06:02:46;;;;;;;5.78;4.30;;;;;;;;;;5039591;28;20436;-79
2022/08/16 06:05:12;;;;;;;10.32;4.20;;;;;;;;;;5051769;28;20083;-77
2022/08/16 06:07:38;;;;;;;6.55;4.10;;;;;;;;;;5042305;28;20139;-78
2022/08/16 06:10:06;;;;;;;6.75;4.60;;;;;;;;;;5032679;28;20025;-77
2022/08/16 06:12:32;;;;;;;7.60;4.13;;;;;;;;;;5045730;28;20093;-78
2022/08/16 06:15:00;;;;;;;6.45;4.13;;;;;;;;;;5039391;28;20435;-78
2022/08/16 06:17:27;;;;;;;7.70;4.30;;;;;;;;;;5041864;28;20041;-78
2022/08/16 06:19:53;;;;;;;6.43;3.55;;;;;;;;;;5042171;28;20021;-78
2022/08/16 06:22:19;;;;;;;5.03;3.85;;;;;;;;;;5045665;28;20056;-80
2022/08/16 06:24:45;;;;;;;7.13;4.13;;;;;;;;;;5044322;28;20048;-78
2022/08/16 06:27:10;;;;;;;7.55;3.33;;;;;;;;;;5042101;28;20039;-79
2022/08/16 06:29:36;;;;;;;6.65;3.38;;;;;;;;;;5036267;28;20029;-77
2022/08/16 06:32:01;;;;;;;7.95;4.10;;;;;;;;;;5038696;28;20432;-77
2022/08/16 06:34:27;;;;;;;7.00;4.07;;;;;;;;;;5038528;28;20127;-77
2022/08/16 06:36:53;;;;;;;9.35;3.92;;;;;;;;;;5039915;28;20548;-79
2022/08/16 06:39:19;;;;;;;8.90;3.50;;;;;;;;;;5041846;28;20032;-79
2022/08/16 06:41:45;;;;;;;5.80;3.85;;;;;;;;;;5034898;28;20037;-78
2022/08/16 06:44:10;;;;;;;4.60;3.45;;;;;;;;;;5040923;28;20089;-78
2022/08/16 06:46:36;;;;;;;6.03;3.22;;;;;;;;;;5036859;28;20671;-77
2022/08/16 06:49:07;;;;;;;5.45;3.17;;;;;;;;;;5039364;28;20029;-76
2022/08/16 06:51:33;;;;;;;;;;;;;;;;;;5057587;28;20025;-78
2022/08/16 06:54:00;;;;;;;8.30;3.55;;;;;;;;;;5044002;28;20474;-79
2022/08/16 06:56:25;;;;;;;9.27;4.28;;;;;;;;;;5040734;28;20029;-79
2022/08/16 06:58:52;;;;;;;6.38;3.63;;;;;;;;;;5036629;28;20170;-76
2022/08/16 07:01:19;;;;;;;4.93;3.30;;;;;;;;;;5040492;28;20041;-77
2022/08/16 07:03:46;;;;;;;6.75;3.80;;;;;;;;;;5040202;28;20017;-79
2022/08/16 07:06:13;;;;;;;3.90;2.80;;;;;;;;;;5042529;28;20112;-79
2022/08/16 07:08:42;;;;;;;4.47;3.53;;;;;;;;;;5034814;28;20028;-78
2022/08/16 07:11:09;;;;;;;4.53;2.95;;;;;;;;;;5037746;28;20029;-79
2022/08/16 07:13:35;;;;;;;3.97;2.88;;;;;;;;;;5038453;28;20025;-78
2022/08/16 07:16:04;;;;;;;4.60;2.83;;;;;;;;;;5033560;28;21941;-80
2022/08/16 07:18:30;;;;;;;14.20;3.75;;;;;;;;;;5035589;28;20060;-79
2022/08/16 07:20:58;;;;;;;9.20;3.42;;;;;;;;;;5042279;28;20083;-79
2022/08/16 07:23:25;;;;;;;4.85;3.13;;;;;;;;;;5024770;28;20578;-77
2022/08/16 07:25:55;;;;;;;6.38;3.10;;;;;;;;;;5041536;28;20040;-78
2022/08/16 07:28:21;;;;;;;8.45;3.55;;;;;;;;;;5034262;28;20055;-79
2022/08/16 07:30:51;;;;;;;9.38;3.40;;;;;;;;;;5035979;28;20033;-78
2022/08/16 07:33:17;;;;;;;6.15;3.50;;;;;;;;;;5040932;28;21386;-78
2022/08/16 07:35:44;;;;;;;3.80;3.00;;;;;;;;;;5036262;28;20029;-79
2022/08/16 07:38:10;;;;;;;10.10;3.38;;;;;;;;;;5041996;28;20107;-78
2022/08/16 07:40:36;;;;;;;7.93;4.35;;;;;;;;;;5039999;28;20116;-77
2022/08/16 07:43:03;;;;;;;8.48;4.25;;;;;;;;;;5038249;28;20029;-77
2022/08/16 07:45:32;;;;;;;2.90;2.60;;;;;;;;;;5039488;28;20025;-76
2022/08/16 07:47:59;;;;;;;7.43;3.45;;;;;;;;;;5039336;28;20025;-79
2022/08/16 07:50:26;;;;;;;4.03;3.10;;;;;;;;;;5021633;28;20067;-79
2022/08/16 07:52:51;;;;;;;7.45;3.63;;;;;;;;;;5044544;28;21292;-79
2022/08/16 07:55:18;;;;;;;3.80;2.72;;;;;;;;;;5041887;28;20043;-79
2022/08/16 07:57:45;;;;;;;6.47;3.85;;;;;;;;;;5039969;28;21792;-78
2022/08/16 08:00:12;;;;;;;5.00;3.38;;;;;;;;;;5041644;28;20136;-79
2022/08/16 08:02:38;;;;;;;4.72;2.72;;;;;;;;;;5038761;28;20487;-78
2022/08/16 08:05:05;;;;;;;6.03;3.70;;;;;;;;;;5039235;28;20025;-78
2022/08/16 08:07:31;;;;;;;6.10;3.30;;;;;;;;;;5027500;28;20496;-78
2022/08/16 08:09:58;;;;;;;8.25;3.10;;;;;;;;;;5034786;28;20029;-79
2022/08/16 08:12:26;;;;;;;7.60;3.70;;;;;;;;;;5042278;28;20763;-77
2022/08/16 08:14:52;;;;;;;32.80;12.23;;;;;;;;;;5034334;28;20461;-78
2022/08/16 08:17:19;;;;;;;8.68;4.28;;;;;;;;;;5037218;28;20032;-79
2022/08/16 08:19:46;;;;;;;67.38;24.00;;;;;;;;;;5040876;28;21204;-77
2022/08/16 08:22:12;;;;;;;6.65;3.50;;;;;;;;;;5041267;28;20138;-78
2022/08/16 08:24:38;;;;;;;8.43;4.40;;;;;;;;;;5039679;28;20473;-78
2022/08/16 08:27:07;;;;;;;16.30;6.03;;;;;;;;;;5040829;28;20490;-78
2022/08/16 08:29:34;;;;;;;6.32;3.55;;;;;;;;;;5040182;28;20098;-78
2022/08/16 08:32:04;;;;;;;4.55;3.10;;;;;;;;;;5040359;28;20051;-78
2022/08/16 08:34:30;;;;;;;10.55;3.90;;;;;;;;;;5041825;28;20738;-79
2022/08/16 08:36:56;;;;;;;5.07;3.65;;;;;;;;;;5044584;28;20025;-78
2022/08/16 08:39:22;;;;;;;7.07;3.33;;;;;;;;;;5025065;28;20602;-78
2022/08/16 08:41:48;;;;;;;10.65;4.32;;;;;;;;;;5025028;28;20036;-78
2022/08/16 08:44:14;;;;;;;5.45;3.33;;;;;;;;;;5042785;28;20067;-79
2022/08/16 08:46:40;;;;;;;7.07;3.10;;;;;;;;;;5040774;28;20068;-78
2022/08/16 08:49:07;;;;;;;4.93;3.22;;;;;;;;;;5032786;28;20204;-78
2022/08/16 08:51:34;;;;;;;4.18;3.28;;;;;;;;;;5043721;28;20658;-79
2022/08/16 08:54:02;;;;;;;4.15;3.58;;;;;;;;;;5043436;28;20043;-78
2022/08/16 08:56:31;;;;;;;6.95;3.03;;;;;;;;;;5041604;28;20415;-78
2022/08/16 08:58:57;;;;;;;5.03;3.38;;;;;;;;;;5039856;28;20024;-76
2022/08/16 09:01:30;;;;;;;5.53;2.90;;;;;;;;;;5043978;28;20017;-79
2022/08/16 09:03:55;;;;;;;4.78;3.22;;;;;;;;;;5040132;28;20037;-79
2022/08/16 09:06:22;;;;;;;5.75;4.00;;;;;;;;;;5040662;28;20036;-79
2022/08/16 09:08:48;;;;;;;7.70;4.03;;;;;;;;;;5037195;28;20029;-79
2022/08/16 09:11:14;;;;;;;6.13;3.58;;;;;;;;;;5046535;28;20097;-78
2022/08/16 09:13:40;;;;;;;3.95;3.05;;;;;;;;;;5027864;28;20504;-79
2022/08/16 09:16:09;;;;;;;5.20;2.88;;;;;;;;;;5043576;28;20091;-78
2022/08/16 09:18:35;;;;;;;5.90;2.90;;;;;;;;;;5035509;28;20029;-80
2022/08/16 09:21:01;;;;;;;8.50;4.25;;;;;;;;;;5037514;28;20052;-79
2022/08/16 09:23:30;;;;;;;3.58;3.03;;;;;;;;;;5039593;28;20115;-80
2022/08/16 09:25:56;;;;;;;3.88;2.60;;;;;;;;;;5041978;28;20040;-81
2022/08/16 09:28:23;;;;;;;3.47;2.92;;;;;;;;;;5039191;28;20025;-79
2022/08/16 09:30:48;;;;;;;4.93;3.53;;;;;;;;;;5025947;28;20036;-78
2022/08/16 09:33:17;;;;;;;3.55;2.70;;;;;;;;;;5042053;28;20033;-80
2022/08/16 09:35:44;;;;;;;5.43;3.08;;;;;;;;;;5042445;28;20413;-79
2022/08/16 09:38:12;;;;;;;3.03;2.72;;;;;;;;;;5037677;28;20576;-78
2022/08/16 09:40:40;;;;;;;7.25;3.03;;;;;;;;;;5037287;28;20017;-78
2022/08/16 09:43:09;;;;;;;17.20;12.13;;;;;;;;;;5042405;28;20025;-79
2022/08/16 09:45:37;;;;;;;6.72;5.40;;;;;;;;;;5040938;28;20033;-77
2022/08/16 09:48:08;;;;;;;13.65;10.65;;;;;;;;;;5031110;28;20182;-77
2022/08/16 09:50:35;;;;;;;5.15;3.10;;;;;;;;;;5038486;28;20025;-79
2022/08/16 09:53:04;;;;;;;10.85;6.93;;;;;;;;;;5041094;28;20485;-79
2022/08/16 09:55:33;;;;;;;6.63;4.47;;;;;;;;;;5038029;28;20425;-77
2022/08/16 09:58:00;;;;;;;5.78;3.40;;;;;;;;;;5036801;28;20035;-77
2022/08/16 10:00:26;;;;;;;7.07;3.05;;;;;;;;;;5040046;28;20036;-78
2022/08/16 10:02:53;;;;;;;3.85;3.05;;;;;;;;;;5043409;28;20033;-78
2022/08/16 10:05:20;;;;;;;7.30;3.60;;;;;;;;;;5043299;28;20472;-79
2022/08/16 10:07:51;;;;;;;4.20;2.83;;;;;;;;;;5033848;28;20025;-79
2022/08/16 10:10:19;;;;;;;5.07;2.65;;;;;;;;;;5039397;28;20037;-78
2022/08/16 10:15:32;;;;;;;4.47;2.28;;;;;;;;;;5043739;28;20067;-76
2022/08/16 10:17:59;;;;;;;3.80;2.45;;;;;;;;;;5036097;28;20513;-77
2022/08/16 10:20:27;;;;;;;6.53;3.15;;;;;;;;;;5041329;28;20024;-79
2022/08/16 10:22:56;;;;;;;4.78;3.13;;;;;;;;;;5036722;28;20479;-78
2022/08/16 10:25:24;;;;;;;5.90;3.03;;;;;;;;;;5042453;28;20136;-77
2022/08/16 10:27:50;;;;;;;5.03;3.15;;;;;;;;;;5038949;28;20029;-78
2022/08/16 10:30:16;;;;;;;9.38;8.18;;;;;;;;;;5043361;28;20044;-79
2022/08/16 10:32:43;;;;;;;2.65;2.30;;;;;;;;;;5041188;28;20346;-78
2022/08/16 10:35:11;;;;;;;4.43;2.38;;;;;;;;;;5043394;28;20032;-77
2022/08/16 10:37:37;;;;;;;5.85;2.33;;;;;;;;;;5038424;28;20120;-78
2022/08/16 10:40:09;;;;;;;4.80;2.53;;;;;;;;;;5038814;28;20111;-79
2022/08/16 10:42:35;;;;;;;5.53;2.97;;;;;;;;;;5044403;28;20037;-79
2022/08/16 10:45:01;;;;;;;5.03;3.78;;;;;;;;;;5043264;28;20397;-78
2022/08/16 10:47:28;;;;;;;5.68;3.15;;;;;;;;;;5038638;28;20032;-78
2022/08/16 10:49:55;;;;;;;6.18;2.70;;;;;;;;;;5042682;28;20040;-76
2022/08/16 10:52:26;;;;;;;3.17;2.20;;;;;;;;;;5044985;28;20048;-84
2022/08/16 10:54:52;;;;;;;4.18;2.80;;;;;;;;;;5044160;28;20024;-78
2022/08/16 10:57:19;;;;;;;3.50;1.90;;;;;;;;;;5038706;28;20120;-79
2022/08/16 10:59:44;;;;;;;5.28;2.65;;;;;;;;;;5034324;28;20050;-77
2022/08/16 11:02:11;;;;;;;5.05;2.90;;;;;;;;;;5041932;28;20494;-79
2022/08/16 11:04:37;;;;;;;3.33;2.58;;;;;;;;;;5041975;28;20032;-79
2022/08/16 11:07:04;;;;;;;3.10;2.45;;;;;;;;;;5035871;28;20041;-77
2022/08/16 11:09:32;;;;;;;4.57;2.33;;;;;;;;;;5039509;28;20495;-77
2022/08/16 11:11:58;;;;;;;3.33;2.67;;;;;;;;;;5036839;28;20071;-77
2022/08/16 11:14:24;;;;;;;4.03;2.25;;;;;;;;;;5043937;28;20059;-77
2022/08/16 11:16:53;;;;;;;6.80;2.60;;;;;;;;;;5046310;28;20029;-77
2022/08/16 11:19:19;;;;;;;3.88;2.40;;;;;;;;;;5044226;28;20033;-77
2022/08/16 11:21:45;;;;;;;4.05;2.83;;;;;;;;;;5045179;28;20112;-77
2022/08/16 11:24:13;;;;;;;2.92;2.15;;;;;;;;;;5035158;28;20184;-77
2022/08/16 11:26:39;;;;;;;8.55;2.80;;;;;;;;;;5033687;28;20033;-79
2022/08/16 11:29:06;;;;;;;5.00;2.22;;;;;;;;;;5022815;28;20540;-77
2022/08/16 11:31:36;;;;;;;6.40;2.65;;;;;;;;;;5042402;28;20111;-80
2022/08/16 11:34:02;;;;;;;2.33;2.13;;;;;;;;;;5037674;28;20194;-80
2022/08/16 11:36:29;;;;;;;3.72;2.10;;;;;;;;;;5042801;28;20898;-77
2022/08/16 11:38:58;;;;;;;6.03;2.58;;;;;;;;;;5037667;28;20035;-75
2022/08/16 11:41:25;;;;;;;6.88;2.85;;;;;;;;;;5038567;28;20087;-77
2022/08/16 11:43:51;;;;;;;3.05;2.50;;;;;;;;;;5033578;28;20040;-78
2022/08/16 11:46:19;;;;;;;4.80;2.42;;;;;;;;;;5042167;28;20207;-75
2022/08/16 11:48:45;;;;;;;3.60;2.50;;;;;;;;;;5036439;28;20102;-76
2022/08/16 11:51:12;;;;;;;3.83;2.88;;;;;;;;;;5049848;28;20028;-78
2022/08/16 11:53:38;;;;;;;6.57;2.40;;;;;;;;;;5045085;28;20660;-79
2022/08/16 11:56:04;;;;;;;5.65;2.45;;;;;;;;;;5048705;28;20024;-78
2022/08/16 11:58:32;;;;;;;5.72;2.85;;;;;;;;;;5042455;28;20118;-78
2022/08/16 12:01:00;;;;;;;2.40;2.20;;;;;;;;;;5044141;28;20036;-79
2022/08/16 12:03:30;;;;;;;2.60;2.35;;;;;;;;;;5048358;28;20033;-77
2022/08/16 12:05:57;;;;;;;2.97;2.30;;;;;;;;;;5040735;28;20036;-80
2022/08/16 12:08:23;;;;;;;7.50;2.45;;;;;;;;;;5046027;28;20129;-79
2022/08/16 12:10:50;;;;;;;5.75;3.50;;;;;;;;;;5038838;28;20763;-77
2022/08/16 12:13:16;;;;;;;5.85;2.83;;;;;;;;;;5036648;28;20029;-77
2022/08/16 12:15:42;;;;;;;4.78;2.95;;;;;;;;;;5043664;28;20137;-79
2022/08/16 12:18:10;;;;;;;7.07;2.75;;;;;;;;;;5043880;28;20464;-78
2022/08/16 12:20:38;;;;;;;3.63;2.10;;;;;;;;;;5041713;28;20021;-81
2022/08/16 12:23:04;;;;;;;4.10;2.50;;;;;;;;;;5042389;28;20045;-79
2022/08/16 12:25:32;;;;;;;7.75;2.50;;;;;;;;;;5045219;28;20895;-80
2022/08/16 12:27:58;;;;;;;3.70;2.80;;;;;;;;;;5039762;28;20128;-78
2022/08/16 12:30:30;;;;;;;7.88;2.58;;;;;;;;;;5039735;28;20033;-78
2022/08/16 12:32:58;;;;;;;2.92;2.45;;;;;;;;;;5043398;28;20047;-80
2022/08/16 12:35:25;;;;;;;6.97;2.17;;;;;;;;;;5057459;28;20036;-79
2022/08/16 12:37:50;;;;;;;5.45;2.35;;;;;;;;;;5036003;28;20532;-79
2022/08/16 12:40:22;;;;;;;4.55;2.53;;;;;;;;;;5038409;28;20044;-79
2022/08/16 12:42:50;;;;;;;3.72;2.47;;;;;;;;;;5045178;28;20031;-78
2022/08/16 12:45:20;;;;;;;5.30;2.60;;;;;;;;;;5036421;28;20095;-79
2022/08/16 12:50:31;;;;;;;7.85;2.47;;;;;;;;;;5037308;28;20044;-76
2022/08/16 12:52:57;;;;;;;8.77;2.35;;;;;;;;;;5040589;28;20392;-79
2022/08/16 12:55:23;;;;;;;5.60;2.38;;;;;;;;;;5048572;28;20701;-78
2022/08/16 12:57:52;;;;;;;6.55;2.30;;;;;;;;;;5029123;28;20128;-79
2022/08/16 13:00:18;;;;;;;2.80;2.30;;;;;;;;;;5042538;28;20029;-79
2022/08/16 13:02:45;;;;;;;3.92;2.33;;;;;;;;;;5043779;28;20031;-79
2022/08/16 13:05:12;;;;;;;6.32;2.53;;;;;;;;;;5042419;28;20090;-77
2022/08/16 13:07:40;;;;;;;4.50;2.45;;;;;;;;;;5037530;28;20453;-77
2022/08/16 13:10:12;;;;;;;6.60;2.35;;;;;;;;;;5043026;28;20078;-79
2022/08/16 13:12:43;;;;;;;2.85;2.05;;;;;;;;;;5036451;28;20033;-77
2022/08/16 13:15:13;;;;;;;2.75;2.13;;;;;;;;;;5042002;28;20029;-77
2022/08/16 13:17:39;;;;;;;6.97;2.47;;;;;;;;;;5045685;28;20491;-77
2022/08/16 13:20:16;;;;;;;8.65;2.53;;;;;;;;;;5037603;28;20034;-77
2022/08/16 13:22:47;;;;;;;6.95;3.13;;;;;;;;;;5041074;28;20202;-78
2022/08/16 13:25:18;;;;;;;3.15;2.33;;;;;;;;;;5033971;28;20409;-78
2022/08/16 13:27:43;;;;;;;3.70;2.10;;;;;;;;;;5036072;28;20028;-78
2022/08/16 13:30:10;;;;;;;5.20;2.05;;;;;;;;;;5044187;28;20032;-78
2022/08/16 13:32:37;;;;;;;3.63;1.98;;;;;;;;;;5037785;28;20033;-77
2022/08/16 13:35:04;;;;;;;3.00;2.03;;;;;;;;;;5036409;28;20119;-77
2022/08/16 13:37:29;;;;;;;19.00;3.40;;;;;;;;;;5038877;28;20036;-76
2022/08/16 13:39:55;;;;;;;5.47;2.25;;;;;;;;;;5040944;28;20032;-80
2022/08/16 13:42:20;;;;;;;6.75;2.90;;;;;;;;;;5040295;28;20029;-78
2022/08/16 13:44:47;;;;;;;2.50;2.22;;;;;;;;;;5036349;28;20406;-78
2022/08/16 13:47:14;;;;;;;7.80;2.10;;;;;;;;;;5037959;28;20029;-78
2022/08/16 13:49:40;;;;;;;2.38;2.17;;;;;;;;;;5038377;28;20037;-78
2022/08/16 13:52:06;;;;;;;4.93;2.40;;;;;;;;;;5031687;28;20110;-76
2022/08/16 13:54:32;;;;;;;4.63;2.60;;;;;;;;;;5041792;28;20112;-78
2022/08/16 13:56:59;;;;;;;6.50;2.58;;;;;;;;;;5045255;28;20116;-78
2022/08/16 13:59:24;;;;;;;4.65;2.38;;;;;;;;;;5049085;28;20037;-77
2022/08/16 14:01:57;;;;;;;5.38;2.70;;;;;;;;;;5037876;28;20032;-78
2022/08/16 14:04:26;;;;;;;5.38;2.70;;;;;;;;;;5015664;28;20049;-78
2022/08/16 14:06:54;;;;;;;5.75;2.78;;;;;;;;;;5041056;28;20037;-78
2022/08/16 14:09:19;;;;;;;6.28;2.38;;;;;;;;;;5035343;28;20029;-79
2022/08/16 14:11:45;;;;;;;6.63;2.92;;;;;;;;;;5046512;28;20037;-77
2022/08/16 14:14:10;;;;;;;2.83;1.88;;;;;;;;;;5050786;28;20089;-77
2022/08/16 14:16:36;;;;;;;5.38;2.50;;;;;;;;;;5037522;28;20041;-79
2022/08/16 14:19:04;;;;;;;4.13;1.98;;;;;;;;;;5048809;28;20029;-80
2022/08/16 14:21:30;;;;;;;2.42;2.00;;;;;;;;;;5049651;28;20028;-78
2022/08/16 14:23:57;;;;;;;3.97;2.10;;;;;;;;;;5053679;28;20051;-79
2022/08/16 14:26:22;;;;;;;4.78;2.10;;;;;;;;;;5052215;28;20028;-79
2022/08/16 14:28:51;;;;;;;5.95;2.35;;;;;;;;;;5042609;28;20021;-77
2022/08/16 14:31:17;;;;;;;3.92;1.77;;;;;;;;;;5048206;28;20028;-81
2022/08/16 14:33:43;;;;;;;6.28;2.10;;;;;;;;;;5044156;28;20063;-80
2022/08/16 14:36:09;;;;;;;3.30;2.15;;;;;;;;;;5049147;28;20132;-79
2022/08/16 14:38:35;;;;;;;7.25;2.10;;;;;;;;;;5070810;28;20047;-79
2022/08/16 14:41:00;;;;;;;5.75;2.63;;;;;;;;;;5063058;28;20044;-79
2022/08/16 14:43:26;;;;;;;5.35;2.50;;;;;;;;;;5054695;28;20305;-79